LIBP

Details ICAO LIBP (PSR)
Name PESCARA
Region Italy
Timezone Europe/Rome (UTC+2.0)
Plans Departing 201
Arriving 233
Stats Elevation 48 ft / 15 m (AMSL)
Location 42.431257° 14.183030°
Runways 1
Magnetic Variation 3.427° E
Sunrise 2018-05-22 03:36:53 UTC / 2018-05-22 05:36:53 Local
Sunset 2018-05-22 18:25:50 UTC / 2018-05-22 20:25:50 Local
Advertisement - Login to hide

Runways

ID Width Length Bearing (true) Bearing (mag) Surface Threshold Offset Overrun Length
04 148 ft / 45 m 7,943 ft / 2,421 m 37.19° 33.76° Asphalt 344 ft / 105 m 0 ft / 0 m
22 148 ft / 45 m 7,943 ft / 2,421 m 217.21° 213.78° Asphalt 617 ft / 188 m 0 ft / 0 m

Approach Navaids

Runway Type Ident Frequency Range Bearing (true) Bearing (mag) Slope Elevation
22 Localiser IPS 110.70 MHz 18 nm / 33 km 217.39° 213.96° - 48 ft / 15 m (AMSL)
22 Glidescope IPS 110.70 MHz 10 nm / 19 km 217.20° 213.77° 3.00° 48 ft / 15 m (AMSL)
22 DME IPS 110.70 MHz 18 nm / 33 km - - - 48 ft / 15 m (AMSL)

Map

Weather


0- 5 10 15 20 25 30 35+ Temperature / ° C

Clouds and Precipitation
Forecast for 2018-05-22 06:00 UTC. Updated 3 hours ago

Ground ~20,000 ft ~40,000 ft Winds

METAR

LIBP 220750Z 08004KT 030V120 CAVOK 22/17 Q1013

TAF

TAF LIBP 220500Z 2206/2306 VRB05KT 9999 SCT050 BECMG 2208/2210 03010KT TEMPO 2212/2218 TSRA BECMG 2215/2218 VRB05KT

Frequencies

Tower 118.45 MHz TWR
Approach 120.05 MHz APP
Warning: Do not use this data for real-world aviation or navigation. No guarantee of current accuracy is given.